Aeroporto :
LOGIN :

Iscrizione | Disclaimer

   EN    FR    IT 

 










Sommario :    VFR   VFR Marginale   IFR   IFR Intensivo   IFR Molto Intensivo
Visibilità : 
Base nubi : 
>= 8 km
>= 3000ft
5 / 8 km
1000 / 3000 ft
1500m / 5 km
500 / 1000 ft
800 / 1500m
200 / 500 ft
< 800m
< 200 ft
Simboli :   Temporali  Nebbia  Neve Forte  Precipitazioni Forti  Vento > 20 kt
SIGMETs :   Varie  Temporali  Ghiacco  Turbolenza  Onda orograficha  Ceneri Vulcaniche






- Altitudine del aeroporto : 1455 ft


ETIH - Hohenfels Army Air Field

ULTIMO METAR :
  • 050706Z AUTO 25005KT 9999 SCT016 SCT023 BKN029 12/08 A2953 RMK AO2 CIG 029V110 SLP998 $

METARs OBSOLETI :
  • 050651Z AUTO 24004KT 9999 FEW015 SCT026 BKN110 11/08 A2953 RMK AO2 SLP000 $
  • 050621Z AUTO 28007KT 9999 SCT014 SCT020 OVC110 11/08 A2952 RMK AO2 SLP996 $
  • 050611Z AUTO 28006KT 9999 SCT014 SCT019 OVC110 11/08 A2952 RMK AO2 SLP996 $
  • 050556Z AUTO 27008KT 9999 BKN014 BKN021 11/09 A2951 RMK AO2 CIG 014V028 SLP993 60003 T01090086 10127 20105 52022 $
  • 050456Z AUTO 28005KT 9999 SCT014 BKN019 11/09 A2949 RMK AO2 RAE04DZB04E06DZB18E20RAB20E43DZB43E46 CIG 014V019 SLP982 P0000 T01070091 $
  • 050446Z AUTO 28005KT 9999 SCT012 11/09 A2948 RMK AO2 RAE04DZB04E06DZB18E20RAB20E43DZB43E46 SLP981 $
  • 050423Z AUTO 30003KT 9999 RA BKN013 BKN025 OVC060 11/09 A2948 RMK AO2 RAE04DZB04E06DZB18E20RAB20 CIG 013V029 BKN013 V SCT SLP981 $
  • 050418Z AUTO 31003KT 9999 DZ SCT013 BKN029 OVC060 11/09 A2947 RMK AO2 RAE04DZB04E06DZB18 CIG 029V060 BKN V SCT SLP977 $

Previsioni scadute.



MetMap, La meteo Aeronautica in un colpo d'occhio ! - Copyright ORBIFLY Dicembre 2007 - Disclaimer

ORBIFLY MET'MAP TEAM :

Programmazione e sviluppo : Alexandra Zaïnal
Concezione : Baudouin d'Aumeries
Aiuto per la programmazione : Marc-Olivier Méhu
Supporto tecnico e logistico : Manuel Goepfert
Aiuto per la traduzione : Arnaldo La Scala

Contatto : metmap@orbifly.com




FONTI E CREDITI :

   NOAA